sensor_id;sensor_type;location;lat;lon;timestamp;P1;durP1;ratioP1;P2;durP2;ratioP2
44516;SDS011;30223;17.182;-96.766;2023-05-16T00:01:45;2.00;;;1.80;;
44516;SDS011;30223;17.182;-96.766;2023-05-16T00:04:12;2.50;;;2.17;;
44516;SDS011;30223;17.182;-96.766;2023-05-16T00:06:39;4.07;;;2.15;;
44516;SDS011;30223;17.182;-96.766;2023-05-16T00:09:05;1.75;;;1.65;;
44516;SDS011;30223;17.182;-96.766;2023-05-16T00:11:32;2.70;;;2.03;;
44516;SDS011;30223;17.182;-96.766;2023-05-16T00:13:59;1.80;;;1.70;;
44516;SDS011;30223;17.182;-96.766;2023-05-16T00:16:26;2.35;;;1.98;;
44516;SDS011;30223;17.182;-96.766;2023-05-16T00:18:54;2.20;;;1.95;;
44516;SDS011;30223;17.182;-96.766;2023-05-16T00:21:25;2.30;;;2.10;;
44516;SDS011;30223;17.182;-96.766;2023-05-16T00:23:51;2.67;;;1.65;;
44516;SDS011;30223;17.182;-96.766;2023-05-16T00:26:18;2.33;;;2.13;;
44516;SDS011;30223;17.182;-96.766;2023-05-16T00:28:45;2.05;;;1.50;;
44516;SDS011;30223;17.182;-96.766;2023-05-16T00:31:12;1.80;;;1.60;;
44516;SDS011;30223;17.182;-96.766;2023-05-16T00:33:39;2.50;;;2.30;;
44516;SDS011;30223;17.182;-96.766;2023-05-16T00:36:06;1.83;;;1.67;;
44516;SDS011;30223;17.182;-96.766;2023-05-16T00:38:33;2.85;;;1.80;;
44516;SDS011;30223;17.182;-96.766;2023-05-16T00:41:00;2.47;;;1.67;;
44516;SDS011;30223;17.182;-96.766;2023-05-16T00:43:26;1.80;;;1.70;;
44516;SDS011;30223;17.182;-96.766;2023-05-16T00:45:53;2.53;;;1.80;;
44516;SDS011;30223;17.182;-96.766;2023-05-16T00:48:22;1.92;;;1.73;;
44516;SDS011;30223;17.182;-96.766;2023-05-16T00:50:49;2.47;;;2.28;;
44516;SDS011;30223;17.182;-96.766;2023-05-16T00:53:17;2.25;;;2.03;;
44516;SDS011;30223;17.182;-96.766;2023-05-16T00:55:44;2.28;;;2.08;;
44516;SDS011;30223;17.182;-96.766;2023-05-16T00:58:12;2.83;;;2.58;;
44516;SDS011;30223;17.182;-96.766;2023-05-16T01:00:39;2.50;;;1.98;;
44516;SDS011;30223;17.182;-96.766;2023-05-16T01:03:07;1.98;;;1.77;;
44516;SDS011;30223;17.182;-96.766;2023-05-16T01:05:34;2.17;;;1.92;;
44516;SDS011;30223;17.182;-96.766;2023-05-16T01:08:00;2.17;;;1.98;;
44516;SDS011;30223;17.182;-96.766;2023-05-16T01:10:30;2.17;;;1.98;;
44516;SDS011;30223;17.182;-96.766;2023-05-16T01:13:11;1.85;;;1.70;;
44516;SDS011;30223;17.182;-96.766;2023-05-16T01:18:45;1.80;;;1.58;;
44516;SDS011;30223;17.182;-96.766;2023-05-16T01:21:18;2.03;;;1.70;;
44516;SDS011;30223;17.182;-96.766;2023-05-16T01:24:10;2.35;;;1.70;;
44516;SDS011;30223;17.182;-96.766;2023-05-16T01:26:57;2.35;;;1.60;;
44516;SDS011;30223;17.182;-96.766;2023-05-16T01:29:28;2.47;;;2.28;;
44516;SDS011;30223;17.182;-96.766;2023-05-16T01:31:55;1.95;;;1.75;;
44516;SDS011;30223;17.182;-96.766;2023-05-16T01:34:25;2.92;;;2.00;;
44516;SDS011;30223;17.182;-96.766;2023-05-16T01:37:08;3.35;;;1.95;;
44516;SDS011;30223;17.182;-96.766;2023-05-16T01:42:20;2.05;;;1.83;;
44516;SDS011;30223;17.182;-96.766;2023-05-16T01:47:25;2.10;;;1.90;;
44516;SDS011;30223;17.182;-96.766;2023-05-16T01:54:55;2.55;;;2.35;;
44516;SDS011;30223;17.182;-96.766;2023-05-16T01:57:24;2.78;;;2.22;;
44516;SDS011;30223;17.182;-96.766;2023-05-16T01:59:52;4.90;;;3.50;;
44516;SDS011;30223;17.182;-96.766;2023-05-16T02:02:19;2.72;;;2.20;;
44516;SDS011;30223;17.182;-96.766;2023-05-16T02:04:46;3.33;;;2.05;;
44516;SDS011;30223;17.182;-96.766;2023-05-16T02:07:13;2.70;;;1.92;;
44516;SDS011;30223;17.182;-96.766;2023-05-16T02:09:40;2.70;;;2.50;;
44516;SDS011;30223;17.182;-96.766;2023-05-16T02:12:07;2.83;;;1.95;;
44516;SDS011;30223;17.182;-96.766;2023-05-16T02:14:33;2.05;;;1.85;;
44516;SDS011;30223;17.182;-96.766;2023-05-16T02:17:00;2.38;;;2.00;;
44516;SDS011;30223;17.182;-96.766;2023-05-16T02:19:27;3.50;;;2.88;;
44516;SDS011;30223;17.182;-96.766;2023-05-16T02:21:54;4.53;;;3.00;;
44516;SDS011;30223;17.182;-96.766;2023-05-16T02:24:21;3.38;;;2.67;;
44516;SDS011;30223;17.182;-96.766;2023-05-16T02:26:48;5.75;;;2.50;;
44516;SDS011;30223;17.182;-96.766;2023-05-16T02:29:15;3.28;;;2.72;;
44516;SDS011;30223;17.182;-96.766;2023-05-16T02:31:41;3.20;;;2.53;;
44516;SDS011;30223;17.182;-96.766;2023-05-16T02:34:08;4.03;;;2.78;;
44516;SDS011;30223;17.182;-96.766;2023-05-16T02:36:35;2.33;;;2.08;;
44516;SDS011;30223;17.182;-96.766;2023-05-16T02:39:02;2.90;;;2.60;;
44516;SDS011;30223;17.182;-96.766;2023-05-16T02:41:29;3.50;;;2.83;;
44516;SDS011;30223;17.182;-96.766;2023-05-16T02:43:56;4.88;;;2.95;;
44516;SDS011;30223;17.182;-96.766;2023-05-16T02:46:27;2.72;;;2.53;;
44516;SDS011;30223;17.182;-96.766;2023-05-16T02:48:55;4.18;;;3.30;;
44516;SDS011;30223;17.182;-96.766;2023-05-16T02:51:23;3.30;;;2.60;;
44516;SDS011;30223;17.182;-96.766;2023-05-16T02:53:51;2.88;;;2.63;;
44516;SDS011;30223;17.182;-96.766;2023-05-16T02:56:18;3.25;;;2.95;;
44516;SDS011;30223;17.182;-96.766;2023-05-16T02:58:46;3.38;;;2.72;;
44516;SDS011;30223;17.182;-96.766;2023-05-16T03:01:15;3.55;;;3.22;;
44516;SDS011;30223;17.182;-96.766;2023-05-16T03:03:42;3.35;;;3.05;;
44516;SDS011;30223;17.182;-96.766;2023-05-16T03:06:08;3.50;;;3.20;;
44516;SDS011;30223;17.182;-96.766;2023-05-16T03:08:35;3.28;;;2.97;;
44516;SDS011;30223;17.182;-96.766;2023-05-16T03:11:02;3.75;;;3.15;;
44516;SDS011;30223;17.182;-96.766;2023-05-16T03:13:29;3.67;;;2.20;;
44516;SDS011;30223;17.182;-96.766;2023-05-16T03:15:56;4.68;;;3.72;;
44516;SDS011;30223;17.182;-96.766;2023-05-16T03:18:22;3.10;;;2.53;;
44516;SDS011;30223;17.182;-96.766;2023-05-16T03:20:49;3.88;;;3.47;;
44516;SDS011;30223;17.182;-96.766;2023-05-16T03:23:19;3.90;;;2.65;;
44516;SDS011;30223;17.182;-96.766;2023-05-16T03:25:46;4.57;;;3.00;;
44516;SDS011;30223;17.182;-96.766;2023-05-16T03:28:15;3.25;;;2.83;;
44516;SDS011;30223;17.182;-96.766;2023-05-16T03:30:42;4.13;;;3.40;;
44516;SDS011;30223;17.182;-96.766;2023-05-16T03:33:09;3.40;;;2.63;;
44516;SDS011;30223;17.182;-96.766;2023-05-16T03:35:36;3.22;;;2.92;;
44516;SDS011;30223;17.182;-96.766;2023-05-16T03:38:03;3.30;;;2.50;;
44516;SDS011;30223;17.182;-96.766;2023-05-16T03:40:30;3.30;;;3.00;;
44516;SDS011;30223;17.182;-96.766;2023-05-16T03:42:57;2.50;;;2.30;;
44516;SDS011;30223;17.182;-96.766;2023-05-16T03:45:24;2.83;;;2.60;;
44516;SDS011;30223;17.182;-96.766;2023-05-16T03:47:51;4.13;;;3.33;;
44516;SDS011;30223;17.182;-96.766;2023-05-16T03:50:17;4.22;;;3.70;;
44516;SDS011;30223;17.182;-96.766;2023-05-16T03:52:44;4.38;;;3.15;;
44516;SDS011;30223;17.182;-96.766;2023-05-16T03:55:11;3.58;;;3.28;;
44516;SDS011;30223;17.182;-96.766;2023-05-16T03:57:41;5.68;;;3.85;;
44516;SDS011;30223;17.182;-96.766;2023-05-16T04:00:10;4.70;;;3.72;;
44516;SDS011;30223;17.182;-96.766;2023-05-16T04:02:37;4.30;;;3.67;;
44516;SDS011;30223;17.182;-96.766;2023-05-16T04:05:08;3.38;;;3.05;;
44516;SDS011;30223;17.182;-96.766;2023-05-16T04:07:36;4.13;;;3.72;;
44516;SDS011;30223;17.182;-96.766;2023-05-16T04:10:03;3.53;;;3.22;;
44516;SDS011;30223;17.182;-96.766;2023-05-16T04:12:30;3.85;;;3.30;;
44516;SDS011;30223;17.182;-96.766;2023-05-16T04:14:57;3.78;;;2.42;;
44516;SDS011;30223;17.182;-96.766;2023-05-16T04:17:24;3.75;;;3.22;;
44516;SDS011;30223;17.182;-96.766;2023-05-16T04:19:51;5.80;;;3.70;;
44516;SDS011;30223;17.182;-96.766;2023-05-16T04:22:19;4.85;;;4.20;;
44516;SDS011;30223;17.182;-96.766;2023-05-16T04:24:47;4.13;;;3.35;;
44516;SDS011;30223;17.182;-96.766;2023-05-16T04:27:14;3.75;;;3.30;;
44516;SDS011;30223;17.182;-96.766;2023-05-16T04:29:41;4.18;;;3.33;;
44516;SDS011;30223;17.182;-96.766;2023-05-16T04:32:08;2.97;;;2.63;;
44516;SDS011;30223;17.182;-96.766;2023-05-16T04:34:35;3.70;;;3.10;;
44516;SDS011;30223;17.182;-96.766;2023-05-16T04:37:03;5.05;;;3.83;;
44516;SDS011;30223;17.182;-96.766;2023-05-16T04:39:30;4.43;;;3.28;;
44516;SDS011;30223;17.182;-96.766;2023-05-16T04:41:56;3.50;;;3.20;;
44516;SDS011;30223;17.182;-96.766;2023-05-16T04:44:26;3.20;;;3.00;;
44516;SDS011;30223;17.182;-96.766;2023-05-16T04:46:53;3.38;;;3.03;;
44516;SDS011;30223;17.182;-96.766;2023-05-16T04:49:20;3.75;;;3.05;;
44516;SDS011;30223;17.182;-96.766;2023-05-16T04:51:47;4.00;;;3.17;;
44516;SDS011;30223;17.182;-96.766;2023-05-16T04:54:14;3.53;;;3.22;;
44516;SDS011;30223;17.182;-96.766;2023-05-16T04:56:41;5.50;;;3.08;;
44516;SDS011;30223;17.182;-96.766;2023-05-16T04:59:08;4.47;;;2.95;;
44516;SDS011;30223;17.182;-96.766;2023-05-16T05:01:34;3.30;;;3.00;;
44516;SDS011;30223;17.182;-96.766;2023-05-16T05:04:01;4.60;;;2.72;;
44516;SDS011;30223;17.182;-96.766;2023-05-16T05:06:28;4.78;;;3.30;;
44516;SDS011;30223;17.182;-96.766;2023-05-16T05:08:55;3.63;;;3.10;;
44516;SDS011;30223;17.182;-96.766;2023-05-16T05:11:25;3.10;;;2.75;;
44516;SDS011;30223;17.182;-96.766;2023-05-16T05:13:52;3.10;;;2.80;;
44516;SDS011;30223;17.182;-96.766;2023-05-16T05:16:28;4.22;;;3.15;;
44516;SDS011;30223;17.182;-96.766;2023-05-16T05:18:55;3.20;;;2.90;;
44516;SDS011;30223;17.182;-96.766;2023-05-16T05:21:21;2.78;;;2.58;;
44516;SDS011;30223;17.182;-96.766;2023-05-16T05:23:49;3.75;;;2.75;;
44516;SDS011;30223;17.182;-96.766;2023-05-16T05:26:16;3.47;;;3.15;;
44516;SDS011;30223;17.182;-96.766;2023-05-16T05:28:43;3.47;;;3.17;;
44516;SDS011;30223;17.182;-96.766;2023-05-16T05:31:10;3.47;;;3.17;;
44516;SDS011;30223;17.182;-96.766;2023-05-16T05:33:37;5.43;;;3.17;;
44516;SDS011;30223;17.182;-96.766;2023-05-16T05:36:04;3.42;;;3.00;;
44516;SDS011;30223;17.182;-96.766;2023-05-16T05:38:33;3.10;;;2.53;;
44516;SDS011;30223;17.182;-96.766;2023-05-16T05:41:00;2.80;;;2.60;;
44516;SDS011;30223;17.182;-96.766;2023-05-16T05:43:26;3.90;;;3.35;;
44516;SDS011;30223;17.182;-96.766;2023-05-16T05:45:53;3.60;;;2.97;;
44516;SDS011;30223;17.182;-96.766;2023-05-16T05:48:20;3.78;;;3.22;;
44516;SDS011;30223;17.182;-96.766;2023-05-16T05:50:47;5.07;;;2.55;;
44516;SDS011;30223;17.182;-96.766;2023-05-16T05:53:14;3.25;;;2.95;;
44516;SDS011;30223;17.182;-96.766;2023-05-16T05:55:40;4.28;;;3.88;;
44516;SDS011;30223;17.182;-96.766;2023-05-16T05:58:07;2.92;;;2.63;;
44516;SDS011;30223;17.182;-96.766;2023-05-16T06:00:34;3.05;;;2.80;;
44516;SDS011;30223;17.182;-96.766;2023-05-16T06:03:00;3.15;;;2.88;;
44516;SDS011;30223;17.182;-96.766;2023-05-16T06:05:27;3.78;;;2.92;;
44516;SDS011;30223;17.182;-96.766;2023-05-16T06:07:54;3.25;;;2.90;;
44516;SDS011;30223;17.182;-96.766;2023-05-16T06:10:21;3.28;;;2.92;;
44516;SDS011;30223;17.182;-96.766;2023-05-16T06:12:47;3.15;;;2.85;;
44516;SDS011;30223;17.182;-96.766;2023-05-16T06:15:14;4.88;;;3.13;;
44516;SDS011;30223;17.182;-96.766;2023-05-16T06:17:41;3.20;;;2.95;;
44516;SDS011;30223;17.182;-96.766;2023-05-16T06:20:08;4.28;;;2.63;;
44516;SDS011;30223;17.182;-96.766;2023-05-16T06:22:34;3.03;;;2.70;;
44516;SDS011;30223;17.182;-96.766;2023-05-16T06:25:01;3.25;;;2.95;;
44516;SDS011;30223;17.182;-96.766;2023-05-16T06:27:28;2.97;;;2.67;;
44516;SDS011;30223;17.182;-96.766;2023-05-16T06:29:55;3.35;;;2.70;;
44516;SDS011;30223;17.182;-96.766;2023-05-16T06:32:21;4.85;;;2.25;;
44516;SDS011;30223;17.182;-96.766;2023-05-16T06:34:48;3.03;;;2.72;;
44516;SDS011;30223;17.182;-96.766;2023-05-16T06:37:15;4.45;;;2.70;;
44516;SDS011;30223;17.182;-96.766;2023-05-16T06:39:42;3.00;;;2.55;;
44516;SDS011;30223;17.182;-96.766;2023-05-16T06:42:09;2.60;;;2.33;;
44516;SDS011;30223;17.182;-96.766;2023-05-16T06:44:35;2.95;;;2.35;;
44516;SDS011;30223;17.182;-96.766;2023-05-16T06:47:02;3.05;;;2.70;;
44516;SDS011;30223;17.182;-96.766;2023-05-16T06:49:29;4.47;;;2.15;;
44516;SDS011;30223;17.182;-96.766;2023-05-16T06:51:56;3.20;;;2.85;;
44516;SDS011;30223;17.182;-96.766;2023-05-16T06:54:22;3.17;;;2.40;;
44516;SDS011;30223;17.182;-96.766;2023-05-16T06:56:49;3.05;;;2.60;;
44516;SDS011;30223;17.182;-96.766;2023-05-16T06:59:16;3.40;;;2.28;;
44516;SDS011;30223;17.182;-96.766;2023-05-16T07:01:43;2.97;;;2.45;;
44516;SDS011;30223;17.182;-96.766;2023-05-16T07:04:09;3.30;;;2.92;;
44516;SDS011;30223;17.182;-96.766;2023-05-16T07:06:36;2.92;;;2.63;;
44516;SDS011;30223;17.182;-96.766;2023-05-16T07:09:03;3.70;;;2.85;;
44516;SDS011;30223;17.182;-96.766;2023-05-16T07:11:29;3.50;;;2.38;;
44516;SDS011;30223;17.182;-96.766;2023-05-16T07:13:56;2.65;;;2.35;;
44516;SDS011;30223;17.182;-96.766;2023-05-16T07:16:23;2.55;;;2.25;;
44516;SDS011;30223;17.182;-96.766;2023-05-16T07:18:52;2.70;;;2.35;;
44516;SDS011;30223;17.182;-96.766;2023-05-16T07:21:19;2.40;;;2.20;;
44516;SDS011;30223;17.182;-96.766;2023-05-16T07:23:46;2.42;;;2.15;;
44516;SDS011;30223;17.182;-96.766;2023-05-16T07:26:13;2.78;;;2.47;;
44516;SDS011;30223;17.182;-96.766;2023-05-16T07:28:40;2.35;;;2.17;;
44516;SDS011;30223;17.182;-96.766;2023-05-16T07:31:07;2.60;;;2.30;;
44516;SDS011;30223;17.182;-96.766;2023-05-16T07:33:34;2.90;;;2.60;;
44516;SDS011;30223;17.182;-96.766;2023-05-16T07:36:00;2.45;;;2.25;;
44516;SDS011;30223;17.182;-96.766;2023-05-16T07:38:27;3.28;;;2.53;;
44516;SDS011;30223;17.182;-96.766;2023-05-16T07:40:54;2.88;;;2.30;;
44516;SDS011;30223;17.182;-96.766;2023-05-16T07:43:20;3.35;;;2.72;;
44516;SDS011;30223;17.182;-96.766;2023-05-16T07:45:47;2.20;;;1.85;;
44516;SDS011;30223;17.182;-96.766;2023-05-16T07:48:14;2.53;;;1.88;;
44516;SDS011;30223;17.182;-96.766;2023-05-16T07:50:41;3.53;;;2.28;;
44516;SDS011;30223;17.182;-96.766;2023-05-16T07:53:08;2.50;;;2.30;;
44516;SDS011;30223;17.182;-96.766;2023-05-16T07:55:35;2.95;;;2.33;;
44516;SDS011;30223;17.182;-96.766;2023-05-16T07:58:02;3.13;;;2.05;;
44516;SDS011;30223;17.182;-96.766;2023-05-16T08:00:29;2.63;;;2.40;;
44516;SDS011;30223;17.182;-96.766;2023-05-16T08:02:56;2.88;;;2.17;;
44516;SDS011;30223;17.182;-96.766;2023-05-16T08:05:23;2.97;;;2.50;;
44516;SDS011;30223;17.182;-96.766;2023-05-16T08:07:49;3.10;;;2.72;;
44516;SDS011;30223;17.182;-96.766;2023-05-16T08:10:16;2.92;;;2.38;;
44516;SDS011;30223;17.182;-96.766;2023-05-16T08:12:43;2.67;;;2.45;;
44516;SDS011;30223;17.182;-96.766;2023-05-16T08:15:10;2.72;;;2.53;;
44516;SDS011;30223;17.182;-96.766;2023-05-16T08:17:37;5.28;;;2.20;;
44516;SDS011;30223;17.182;-96.766;2023-05-16T08:20:04;2.38;;;2.15;;
44516;SDS011;30223;17.182;-96.766;2023-05-16T08:22:31;2.30;;;2.00;;
44516;SDS011;30223;17.182;-96.766;2023-05-16T08:24:58;3.42;;;2.40;;
44516;SDS011;30223;17.182;-96.766;2023-05-16T08:27:26;2.58;;;2.33;;
44516;SDS011;30223;17.182;-96.766;2023-05-16T08:29:53;2.60;;;2.10;;
44516;SDS011;30223;17.182;-96.766;2023-05-16T08:32:20;3.38;;;2.20;;
44516;SDS011;30223;17.182;-96.766;2023-05-16T08:34:47;4.25;;;2.88;;
44516;SDS011;30223;17.182;-96.766;2023-05-16T08:37:14;3.40;;;2.70;;
44516;SDS011;30223;17.182;-96.766;2023-05-16T08:39:41;3.30;;;2.30;;
44516;SDS011;30223;17.182;-96.766;2023-05-16T08:42:07;2.88;;;2.25;;
44516;SDS011;30223;17.182;-96.766;2023-05-16T08:44:35;3.40;;;2.70;;
44516;SDS011;30223;17.182;-96.766;2023-05-16T08:47:11;3.38;;;2.63;;
44516;SDS011;30223;17.182;-96.766;2023-05-16T08:49:43;2.97;;;2.65;;
44516;SDS011;30223;17.182;-96.766;2023-05-16T08:52:13;3.05;;;2.75;;
44516;SDS011;30223;17.182;-96.766;2023-05-16T08:54:45;2.40;;;2.20;;
44516;SDS011;30223;17.182;-96.766;2023-05-16T08:57:13;2.72;;;2.00;;
44516;SDS011;30223;17.182;-96.766;2023-05-16T08:59:40;1.90;;;1.67;;
44516;SDS011;30223;17.182;-96.766;2023-05-16T09:02:07;2.88;;;2.20;;
44516;SDS011;30223;17.182;-96.766;2023-05-16T09:04:34;4.85;;;3.35;;
44516;SDS011;30223;17.182;-96.766;2023-05-16T09:07:03;2.45;;;1.88;;
44516;SDS011;30223;17.182;-96.766;2023-05-16T09:09:30;2.78;;;2.55;;
44516;SDS011;30223;17.182;-96.766;2023-05-16T09:11:56;2.40;;;2.08;;
44516;SDS011;30223;17.182;-96.766;2023-05-16T09:14:23;3.25;;;2.10;;
44516;SDS011;30223;17.182;-96.766;2023-05-16T09:17:03;2.40;;;2.10;;
44516;SDS011;30223;17.182;-96.766;2023-05-16T09:19:37;3.20;;;2.90;;
44516;SDS011;30223;17.182;-96.766;2023-05-16T09:22:08;2.33;;;2.13;;
44516;SDS011;30223;17.182;-96.766;2023-05-16T09:24:38;2.15;;;1.95;;
44516;SDS011;30223;17.182;-96.766;2023-05-16T09:27:06;2.20;;;1.85;;
44516;SDS011;30223;17.182;-96.766;2023-05-16T09:29:34;2.88;;;2.42;;
44516;SDS011;30223;17.182;-96.766;2023-05-16T09:32:07;2.58;;;1.70;;
44516;SDS011;30223;17.182;-96.766;2023-05-16T09:34:54;2.67;;;2.10;;
44516;SDS011;30223;17.182;-96.766;2023-05-16T09:37:23;2.78;;;2.25;;
44516;SDS011;30223;17.182;-96.766;2023-05-16T09:39:51;3.83;;;2.20;;
44516;SDS011;30223;17.182;-96.766;2023-05-16T09:42:21;2.65;;;2.10;;
44516;SDS011;30223;17.182;-96.766;2023-05-16T09:44:50;2.57;;;1.93;;
44516;SDS011;30223;17.182;-96.766;2023-05-16T09:47:20;2.42;;;2.20;;
44516;SDS011;30223;17.182;-96.766;2023-05-16T09:49:50;2.60;;;2.00;;
44516;SDS011;30223;17.182;-96.766;2023-05-16T09:52:18;3.63;;;1.70;;
44516;SDS011;30223;17.182;-96.766;2023-05-16T09:54:46;2.30;;;2.10;;
44516;SDS011;30223;17.182;-96.766;2023-05-16T09:57:19;2.28;;;2.05;;
44516;SDS011;30223;17.182;-96.766;2023-05-16T09:59:50;2.05;;;1.85;;
44516;SDS011;30223;17.182;-96.766;2023-05-16T10:02:17;2.47;;;2.03;;
44516;SDS011;30223;17.182;-96.766;2023-05-16T10:04:44;2.35;;;2.15;;
44516;SDS011;30223;17.182;-96.766;2023-05-16T10:07:11;1.83;;;1.73;;
44516;SDS011;30223;17.182;-96.766;2023-05-16T10:09:38;2.20;;;1.88;;
44516;SDS011;30223;17.182;-96.766;2023-05-16T10:12:07;3.38;;;2.33;;
44516;SDS011;30223;17.182;-96.766;2023-05-16T10:14:35;2.42;;;2.22;;
44516;SDS011;30223;17.182;-96.766;2023-05-16T10:17:03;2.33;;;2.10;;
44516;SDS011;30223;17.182;-96.766;2023-05-16T10:22:04;2.83;;;2.05;;
44516;SDS011;30223;17.182;-96.766;2023-05-16T10:25:23;3.20;;;2.15;;
44516;SDS011;30223;17.182;-96.766;2023-05-16T10:27:37;2.20;;;2.00;;
44516;SDS011;30223;17.182;-96.766;2023-05-16T10:30:05;1.75;;;1.65;;
44516;SDS011;30223;17.182;-96.766;2023-05-16T10:32:34;2.40;;;2.17;;
44516;SDS011;30223;17.182;-96.766;2023-05-16T10:35:05;2.00;;;1.80;;
44516;SDS011;30223;17.182;-96.766;2023-05-16T10:37:32;2.40;;;1.90;;
44516;SDS011;30223;17.182;-96.766;2023-05-16T10:40:01;3.03;;;2.20;;
44516;SDS011;30223;17.182;-96.766;2023-05-16T10:42:31;2.70;;;2.40;;
44516;SDS011;30223;17.182;-96.766;2023-05-16T10:45:08;1.90;;;1.60;;
44516;SDS011;30223;17.182;-96.766;2023-05-16T10:47:58;2.53;;;2.33;;
44516;SDS011;30223;17.182;-96.766;2023-05-16T10:50:30;2.20;;;1.90;;
44516;SDS011;30223;17.182;-96.766;2023-05-16T10:56:04;2.78;;;2.58;;
44516;SDS011;30223;17.182;-96.766;2023-05-16T11:01:16;2.38;;;1.85;;
44516;SDS011;30223;17.182;-96.766;2023-05-16T11:06:26;1.75;;;1.65;;
44516;SDS011;30223;17.182;-96.766;2023-05-16T11:17:14;2.22;;;2.05;;
44516;SDS011;30223;17.182;-96.766;2023-05-16T11:19:50;2.00;;;1.80;;
44516;SDS011;30223;17.182;-96.766;2023-05-16T11:22:24;2.53;;;2.15;;
44516;SDS011;30223;17.182;-96.766;2023-05-16T11:27:34;2.35;;;1.95;;
44516;SDS011;30223;17.182;-96.766;2023-05-16T11:30:12;1.55;;;1.38;;
44516;SDS011;30223;17.182;-96.766;2023-05-16T11:32:41;2.43;;;2.07;;
44516;SDS011;30223;17.182;-96.766;2023-05-16T11:35:10;2.45;;;1.85;;
44516;SDS011;30223;17.182;-96.766;2023-05-16T11:40:05;3.03;;;1.70;;
44516;SDS011;30223;17.182;-96.766;2023-05-16T11:42:34;1.75;;;1.55;;
44516;SDS011;30223;17.182;-96.766;2023-05-16T11:47:36;1.88;;;1.35;;
44516;SDS011;30223;17.182;-96.766;2023-05-16T11:50:10;1.95;;;1.48;;
44516;SDS011;30223;17.182;-96.766;2023-05-16T11:52:42;1.83;;;1.60;;
44516;SDS011;30223;17.182;-96.766;2023-05-16T11:55:10;2.13;;;1.88;;
44516;SDS011;30223;17.182;-96.766;2023-05-16T11:57:37;1.95;;;1.50;;
44516;SDS011;30223;17.182;-96.766;2023-05-16T12:00:16;2.38;;;1.55;;
44516;SDS011;30223;17.182;-96.766;2023-05-16T12:02:44;2.92;;;2.15;;
44516;SDS011;30223;17.182;-96.766;2023-05-16T12:05:15;2.28;;;1.50;;
44516;SDS011;30223;17.182;-96.766;2023-05-16T12:07:45;2.40;;;1.90;;
44516;SDS011;30223;17.182;-96.766;2023-05-16T12:10:13;3.17;;;1.17;;
44516;SDS011;30223;17.182;-96.766;2023-05-16T12:12:42;2.22;;;1.60;;
44516;SDS011;30223;17.182;-96.766;2023-05-16T12:15:11;2.35;;;1.85;;
44516;SDS011;30223;17.182;-96.766;2023-05-16T12:17:39;1.67;;;1.40;;
44516;SDS011;30223;17.182;-96.766;2023-05-16T12:20:07;2.80;;;1.88;;
44516;SDS011;30223;17.182;-96.766;2023-05-16T12:22:41;1.40;;;1.30;;
44516;SDS011;30223;17.182;-96.766;2023-05-16T12:25:21;2.50;;;1.60;;
44516;SDS011;30223;17.182;-96.766;2023-05-16T12:27:54;1.40;;;1.30;;
44516;SDS011;30223;17.182;-96.766;2023-05-16T12:30:25;1.58;;;1.48;;
44516;SDS011;30223;17.182;-96.766;2023-05-16T12:33:00;1.83;;;1.48;;
44516;SDS011;30223;17.182;-96.766;2023-05-16T12:35:33;2.35;;;1.50;;
44516;SDS011;30223;17.182;-96.766;2023-05-16T12:38:08;2.22;;;2.03;;
44516;SDS011;30223;17.182;-96.766;2023-05-16T12:40:36;1.98;;;1.50;;
44516;SDS011;30223;17.182;-96.766;2023-05-16T12:43:13;2.22;;;1.77;;
44516;SDS011;30223;17.182;-96.766;2023-05-16T12:45:56;1.63;;;1.30;;
44516;SDS011;30223;17.182;-96.766;2023-05-16T12:48:23;1.88;;;1.65;;
44516;SDS011;30223;17.182;-96.766;2023-05-16T12:50:56;1.80;;;1.20;;
44516;SDS011;30223;17.182;-96.766;2023-05-16T12:53:54;2.85;;;1.83;;
44516;SDS011;30223;17.182;-96.766;2023-05-16T12:56:21;1.90;;;1.50;;
44516;SDS011;30223;17.182;-96.766;2023-05-16T12:58:49;1.40;;;1.30;;
44516;SDS011;30223;17.182;-96.766;2023-05-16T13:01:16;1.90;;;1.70;;
44516;SDS011;30223;17.182;-96.766;2023-05-16T13:03:43;2.25;;;2.05;;
44516;SDS011;30223;17.182;-96.766;2023-05-16T13:06:10;2.03;;;1.58;;
44516;SDS011;30223;17.182;-96.766;2023-05-16T13:08:36;1.70;;;1.48;;
44516;SDS011;30223;17.182;-96.766;2023-05-16T13:11:03;2.22;;;2.03;;
44516;SDS011;30223;17.182;-96.766;2023-05-16T13:13:30;1.52;;;1.42;;
44516;SDS011;30223;17.182;-96.766;2023-05-16T13:15:57;2.50;;;2.30;;
44516;SDS011;30223;17.182;-96.766;2023-05-16T13:18:24;1.55;;;1.40;;
44516;SDS011;30223;17.182;-96.766;2023-05-16T13:20:51;1.88;;;1.77;;
44516;SDS011;30223;17.182;-96.766;2023-05-16T13:23:17;2.05;;;1.63;;
44516;SDS011;30223;17.182;-96.766;2023-05-16T13:25:44;1.90;;;1.80;;
44516;SDS011;30223;17.182;-96.766;2023-05-16T13:28:11;1.65;;;1.10;;
44516;SDS011;30223;17.182;-96.766;2023-05-16T13:30:38;1.77;;;1.45;;
44516;SDS011;30223;17.182;-96.766;2023-05-16T13:33:05;2.22;;;2.00;;
44516;SDS011;30223;17.182;-96.766;2023-05-16T13:35:31;2.58;;;1.95;;
44516;SDS011;30223;17.182;-96.766;2023-05-16T13:37:58;1.90;;;1.77;;
44516;SDS011;30223;17.182;-96.766;2023-05-16T13:40:25;1.33;;;1.20;;
44516;SDS011;30223;17.182;-96.766;2023-05-16T13:42:53;1.63;;;1.50;;
44516;SDS011;30223;17.182;-96.766;2023-05-16T13:45:21;1.73;;;1.45;;
44516;SDS011;30223;17.182;-96.766;2023-05-16T13:47:47;1.75;;;1.55;;
44516;SDS011;30223;17.182;-96.766;2023-05-16T13:50:14;1.83;;;1.10;;
44516;SDS011;30223;17.182;-96.766;2023-05-16T13:52:41;1.50;;;1.20;;
44516;SDS011;30223;17.182;-96.766;2023-05-16T13:55:08;1.60;;;1.30;;
44516;SDS011;30223;17.182;-96.766;2023-05-16T13:57:35;3.25;;;1.67;;
44516;SDS011;30223;17.182;-96.766;2023-05-16T14:00:02;1.75;;;1.52;;
44516;SDS011;30223;17.182;-96.766;2023-05-16T14:02:37;2.33;;;1.50;;
44516;SDS011;30223;17.182;-96.766;2023-05-16T14:05:05;1.37;;;1.23;;
44516;SDS011;30223;17.182;-96.766;2023-05-16T14:07:33;2.38;;;1.50;;
44516;SDS011;30223;17.182;-96.766;2023-05-16T14:10:00;1.80;;;1.70;;
44516;SDS011;30223;17.182;-96.766;2023-05-16T14:12:28;1.85;;;1.40;;
44516;SDS011;30223;17.182;-96.766;2023-05-16T14:14:55;1.42;;;1.25;;
44516;SDS011;30223;17.182;-96.766;2023-05-16T14:17:22;1.30;;;1.13;;
44516;SDS011;30223;17.182;-96.766;2023-05-16T14:19:48;2.15;;;1.10;;
44516;SDS011;30223;17.182;-96.766;2023-05-16T14:22:15;1.67;;;1.35;;
44516;SDS011;30223;17.182;-96.766;2023-05-16T14:24:43;1.38;;;1.27;;
44516;SDS011;30223;17.182;-96.766;2023-05-16T14:27:10;1.27;;;1.15;;
44516;SDS011;30223;17.182;-96.766;2023-05-16T14:29:36;1.80;;;1.70;;
44516;SDS011;30223;17.182;-96.766;2023-05-16T14:32:03;1.58;;;1.45;;
44516;SDS011;30223;17.182;-96.766;2023-05-16T14:34:30;1.60;;;1.20;;
44516;SDS011;30223;17.182;-96.766;2023-05-16T14:36:57;2.63;;;1.63;;
44516;SDS011;30223;17.182;-96.766;2023-05-16T14:39:25;2.30;;;1.95;;
44516;SDS011;30223;17.182;-96.766;2023-05-16T14:41:51;2.00;;;1.60;;
44516;SDS011;30223;17.182;-96.766;2023-05-16T14:44:18;1.80;;;1.45;;
44516;SDS011;30223;17.182;-96.766;2023-05-16T14:46:46;1.65;;;1.50;;
44516;SDS011;30223;17.182;-96.766;2023-05-16T14:49:12;1.58;;;1.42;;
44516;SDS011;30223;17.182;-96.766;2023-05-16T14:51:40;1.40;;;1.30;;
44516;SDS011;30223;17.182;-96.766;2023-05-16T14:54:09;2.28;;;1.60;;
44516;SDS011;30223;17.182;-96.766;2023-05-16T14:56:36;2.55;;;1.50;;
44516;SDS011;30223;17.182;-96.766;2023-05-16T14:59:02;1.98;;;1.30;;
44516;SDS011;30223;17.182;-96.766;2023-05-16T15:01:29;1.38;;;1.23;;
44516;SDS011;30223;17.182;-96.766;2023-05-16T15:03:56;2.03;;;1.92;;
44516;SDS011;30223;17.182;-96.766;2023-05-16T15:06:23;2.15;;;1.95;;
44516;SDS011;30223;17.182;-96.766;2023-05-16T15:08:50;1.60;;;1.50;;